sensor_id;sensor_type;location;lat;lon;timestamp;P1;durP1;ratioP1;P2;durP2;ratioP2
67076;SDS011;53991;46.364;17.008;2022-08-19T00:03:46;10.23;;;5.97;;
67076;SDS011;53991;46.364;17.008;2022-08-19T00:09:50;8.70;;;5.77;;
67076;SDS011;53991;46.364;17.008;2022-08-19T00:12:53;7.07;;;5.82;;
67076;SDS011;53991;46.364;17.008;2022-08-19T00:15:55;9.50;;;6.45;;
67076;SDS011;53991;46.364;17.008;2022-08-19T00:18:58;6.70;;;6.00;;
67076;SDS011;53991;46.364;17.008;2022-08-19T00:22:01;13.70;;;7.97;;
67076;SDS011;53991;46.364;17.008;2022-08-19T00:25:04;8.73;;;6.78;;
67076;SDS011;53991;46.364;17.008;2022-08-19T00:28:07;13.38;;;6.60;;
67076;SDS011;53991;46.364;17.008;2022-08-19T00:34:12;6.97;;;5.97;;
67076;SDS011;53991;46.364;17.008;2022-08-19T00:37:16;8.23;;;6.78;;
67076;SDS011;53991;46.364;17.008;2022-08-19T00:40:18;7.25;;;6.13;;
67076;SDS011;53991;46.364;17.008;2022-08-19T00:43:22;8.82;;;6.80;;
67076;SDS011;53991;46.364;17.008;2022-08-19T00:46:26;9.57;;;7.22;;
67076;SDS011;53991;46.364;17.008;2022-08-19T00:49:34;11.68;;;6.68;;
67076;SDS011;53991;46.364;17.008;2022-08-19T00:52:40;12.15;;;6.88;;
67076;SDS011;53991;46.364;17.008;2022-08-19T00:55:46;15.40;;;7.63;;
67076;SDS011;53991;46.364;17.008;2022-08-19T00:58:54;10.18;;;7.35;;
67076;SDS011;53991;46.364;17.008;2022-08-19T01:01:57;9.30;;;6.93;;
67076;SDS011;53991;46.364;17.008;2022-08-19T01:05:03;12.40;;;6.95;;
67076;SDS011;53991;46.364;17.008;2022-08-19T01:08:09;10.23;;;6.40;;
67076;SDS011;53991;46.364;17.008;2022-08-19T01:11:12;12.50;;;7.43;;
67076;SDS011;53991;46.364;17.008;2022-08-19T01:17:17;11.53;;;6.63;;
67076;SDS011;53991;46.364;17.008;2022-08-19T01:20:22;9.88;;;6.82;;
67076;SDS011;53991;46.364;17.008;2022-08-19T01:23:25;10.30;;;6.97;;
67076;SDS011;53991;46.364;17.008;2022-08-19T01:26:28;11.88;;;7.35;;
67076;SDS011;53991;46.364;17.008;2022-08-19T01:29:31;10.27;;;7.13;;
67076;SDS011;53991;46.364;17.008;2022-08-19T01:32:37;14.65;;;7.63;;
67076;SDS011;53991;46.364;17.008;2022-08-19T01:38:42;9.48;;;5.88;;
67076;SDS011;53991;46.364;17.008;2022-08-19T01:41:46;11.77;;;6.78;;
67076;SDS011;53991;46.364;17.008;2022-08-19T01:44:48;11.15;;;6.50;;
67076;SDS011;53991;46.364;17.008;2022-08-19T01:51:03;13.30;;;6.22;;
67076;SDS011;53991;46.364;17.008;2022-08-19T01:54:06;10.45;;;6.20;;
67076;SDS011;53991;46.364;17.008;2022-08-19T01:57:10;9.85;;;6.85;;
67076;SDS011;53991;46.364;17.008;2022-08-19T02:00:16;10.68;;;6.20;;
67076;SDS011;53991;46.364;17.008;2022-08-19T02:03:20;10.25;;;6.40;;
67076;SDS011;53991;46.364;17.008;2022-08-19T02:06:25;11.00;;;7.28;;
67076;SDS011;53991;46.364;17.008;2022-08-19T02:12:29;16.07;;;8.07;;
67076;SDS011;53991;46.364;17.008;2022-08-19T02:15:32;10.57;;;7.25;;
67076;SDS011;53991;46.364;17.008;2022-08-19T02:18:34;13.82;;;9.10;;
67076;SDS011;53991;46.364;17.008;2022-08-19T02:24:38;10.87;;;6.53;;
67076;SDS011;53991;46.364;17.008;2022-08-19T02:27:41;8.43;;;7.18;;
67076;SDS011;53991;46.364;17.008;2022-08-19T02:30:44;8.50;;;6.72;;
67076;SDS011;53991;46.364;17.008;2022-08-19T02:33:46;13.68;;;7.93;;
67076;SDS011;53991;46.364;17.008;2022-08-19T02:36:49;12.65;;;7.65;;
67076;SDS011;53991;46.364;17.008;2022-08-19T02:39:52;14.20;;;8.27;;
67076;SDS011;53991;46.364;17.008;2022-08-19T02:42:55;10.73;;;7.25;;
67076;SDS011;53991;46.364;17.008;2022-08-19T02:45:58;11.63;;;7.50;;
67076;SDS011;53991;46.364;17.008;2022-08-19T02:52:05;9.02;;;6.97;;
67076;SDS011;53991;46.364;17.008;2022-08-19T02:58:09;11.40;;;7.20;;
67076;SDS011;53991;46.364;17.008;2022-08-19T03:01:19;11.80;;;6.90;;
67076;SDS011;53991;46.364;17.008;2022-08-19T03:04:26;9.38;;;7.18;;
67076;SDS011;53991;46.364;17.008;2022-08-19T03:07:28;11.98;;;6.95;;
67076;SDS011;53991;46.364;17.008;2022-08-19T03:13:33;13.45;;;7.32;;
67076;SDS011;53991;46.364;17.008;2022-08-19T03:19:43;13.98;;;7.15;;
67076;SDS011;53991;46.364;17.008;2022-08-19T03:25:48;10.77;;;8.10;;
67076;SDS011;53991;46.364;17.008;2022-08-19T03:29:11;12.55;;;7.65;;
67076;SDS011;53991;46.364;17.008;2022-08-19T03:32:14;9.93;;;7.63;;
67076;SDS011;53991;46.364;17.008;2022-08-19T03:35:33;9.63;;;7.57;;
67076;SDS011;53991;46.364;17.008;2022-08-19T03:38:39;12.80;;;7.45;;
67076;SDS011;53991;46.364;17.008;2022-08-19T03:41:47;11.95;;;7.38;;
67076;SDS011;53991;46.364;17.008;2022-08-19T03:45:10;13.30;;;7.43;;
67076;SDS011;53991;46.364;17.008;2022-08-19T03:51:19;10.50;;;6.03;;
67076;SDS011;53991;46.364;17.008;2022-08-19T03:54:31;15.70;;;6.78;;
67076;SDS011;53991;46.364;17.008;2022-08-19T03:57:34;12.80;;;6.35;;
67076;SDS011;53991;46.364;17.008;2022-08-19T04:00:36;11.57;;;5.95;;
67076;SDS011;53991;46.364;17.008;2022-08-19T04:06:41;11.10;;;6.35;;
67076;SDS011;53991;46.364;17.008;2022-08-19T04:09:45;10.00;;;5.93;;
67076;SDS011;53991;46.364;17.008;2022-08-19T04:15:51;9.25;;;5.50;;
67076;SDS011;53991;46.364;17.008;2022-08-19T04:18:55;8.60;;;6.22;;
67076;SDS011;53991;46.364;17.008;2022-08-19T04:22:01;14.88;;;5.97;;
67076;SDS011;53991;46.364;17.008;2022-08-19T04:28:06;8.55;;;6.55;;
67076;SDS011;53991;46.364;17.008;2022-08-19T04:31:12;13.38;;;5.65;;
67076;SDS011;53991;46.364;17.008;2022-08-19T04:34:17;10.13;;;6.18;;
67076;SDS011;53991;46.364;17.008;2022-08-19T04:37:21;8.80;;;6.40;;
67076;SDS011;53991;46.364;17.008;2022-08-19T04:43:25;11.30;;;5.40;;
67076;SDS011;53991;46.364;17.008;2022-08-19T04:46:28;9.20;;;5.30;;
67076;SDS011;53991;46.364;17.008;2022-08-19T04:49:40;7.75;;;4.88;;
67076;SDS011;53991;46.364;17.008;2022-08-19T04:52:43;10.35;;;5.57;;
67076;SDS011;53991;46.364;17.008;2022-08-19T04:58:48;9.77;;;4.53;;
67076;SDS011;53991;46.364;17.008;2022-08-19T05:01:51;9.05;;;5.47;;
67076;SDS011;53991;46.364;17.008;2022-08-19T05:04:57;9.40;;;6.20;;
67076;SDS011;53991;46.364;17.008;2022-08-19T05:08:00;9.90;;;5.10;;
67076;SDS011;53991;46.364;17.008;2022-08-19T05:11:13;8.10;;;3.45;;
67076;SDS011;53991;46.364;17.008;2022-08-19T05:14:26;9.32;;;3.33;;
67076;SDS011;53991;46.364;17.008;2022-08-19T05:20:38;9.05;;;3.92;;
67076;SDS011;53991;46.364;17.008;2022-08-19T05:23:40;13.38;;;4.50;;
67076;SDS011;53991;46.364;17.008;2022-08-19T05:29:46;8.70;;;3.45;;
67076;SDS011;53991;46.364;17.008;2022-08-19T05:32:49;8.65;;;3.38;;
67076;SDS011;53991;46.364;17.008;2022-08-19T05:35:55;8.93;;;3.58;;
67076;SDS011;53991;46.364;17.008;2022-08-19T05:38:57;8.88;;;3.10;;
67076;SDS011;53991;46.364;17.008;2022-08-19T05:42:07;7.00;;;3.67;;
67076;SDS011;53991;46.364;17.008;2022-08-19T05:45:10;7.18;;;3.20;;
67076;SDS011;53991;46.364;17.008;2022-08-19T05:48:14;5.57;;;2.38;;
67076;SDS011;53991;46.364;17.008;2022-08-19T05:51:16;9.15;;;2.83;;
67076;SDS011;53991;46.364;17.008;2022-08-19T05:57:21;9.40;;;3.13;;
67076;SDS011;53991;46.364;17.008;2022-08-19T06:00:23;8.10;;;2.90;;
67076;SDS011;53991;46.364;17.008;2022-08-19T06:03:25;9.75;;;3.35;;
67076;SDS011;53991;46.364;17.008;2022-08-19T06:06:28;8.25;;;2.83;;
67076;SDS011;53991;46.364;17.008;2022-08-19T06:09:31;7.40;;;2.95;;
67076;SDS011;53991;46.364;17.008;2022-08-19T06:12:33;6.07;;;2.33;;
67076;SDS011;53991;46.364;17.008;2022-08-19T06:18:39;10.30;;;3.22;;
67076;SDS011;53991;46.364;17.008;2022-08-19T06:21:42;8.65;;;2.75;;
67076;SDS011;53991;46.364;17.008;2022-08-19T06:24:45;9.43;;;3.50;;
67076;SDS011;53991;46.364;17.008;2022-08-19T06:27:47;10.38;;;2.92;;
67076;SDS011;53991;46.364;17.008;2022-08-19T06:31:10;13.20;;;2.88;;
67076;SDS011;53991;46.364;17.008;2022-08-19T06:34:12;9.50;;;3.25;;
67076;SDS011;53991;46.364;17.008;2022-08-19T06:37:15;8.52;;;3.30;;
67076;SDS011;53991;46.364;17.008;2022-08-19T06:40:17;11.93;;;3.65;;
67076;SDS011;53991;46.364;17.008;2022-08-19T06:43:20;10.93;;;3.60;;
67076;SDS011;53991;46.364;17.008;2022-08-19T06:46:28;11.05;;;3.50;;
67076;SDS011;53991;46.364;17.008;2022-08-19T06:49:35;7.53;;;2.55;;
67076;SDS011;53991;46.364;17.008;2022-08-19T06:52:39;7.40;;;3.03;;
67076;SDS011;53991;46.364;17.008;2022-08-19T06:55:41;12.85;;;4.47;;
67076;SDS011;53991;46.364;17.008;2022-08-19T06:58:44;8.25;;;3.30;;
67076;SDS011;53991;46.364;17.008;2022-08-19T07:01:47;9.35;;;3.67;;
67076;SDS011;53991;46.364;17.008;2022-08-19T07:04:52;8.70;;;3.28;;
67076;SDS011;53991;46.364;17.008;2022-08-19T07:07:54;10.38;;;3.10;;
67076;SDS011;53991;46.364;17.008;2022-08-19T07:10:59;7.03;;;3.13;;
67076;SDS011;53991;46.364;17.008;2022-08-19T07:17:04;8.80;;;3.38;;
67076;SDS011;53991;46.364;17.008;2022-08-19T07:20:09;10.20;;;3.75;;
67076;SDS011;53991;46.364;17.008;2022-08-19T07:23:12;8.18;;;3.65;;
67076;SDS011;53991;46.364;17.008;2022-08-19T07:26:25;9.57;;;3.67;;
67076;SDS011;53991;46.364;17.008;2022-08-19T07:29:34;8.73;;;3.00;;
67076;SDS011;53991;46.364;17.008;2022-08-19T07:32:38;8.05;;;3.60;;
67076;SDS011;53991;46.364;17.008;2022-08-19T07:35:41;8.60;;;3.22;;
67076;SDS011;53991;46.364;17.008;2022-08-19T07:41:47;9.43;;;3.97;;
67076;SDS011;53991;46.364;17.008;2022-08-19T07:44:49;7.43;;;3.10;;
67076;SDS011;53991;46.364;17.008;2022-08-19T07:47:52;10.80;;;3.40;;
67076;SDS011;53991;46.364;17.008;2022-08-19T07:50:57;6.90;;;3.15;;
67076;SDS011;53991;46.364;17.008;2022-08-19T07:53:59;9.73;;;4.15;;
67076;SDS011;53991;46.364;17.008;2022-08-19T07:57:02;11.25;;;3.58;;
67076;SDS011;53991;46.364;17.008;2022-08-19T08:00:05;11.43;;;3.60;;
67076;SDS011;53991;46.364;17.008;2022-08-19T08:03:08;8.75;;;3.75;;
67076;SDS011;53991;46.364;17.008;2022-08-19T08:06:11;8.18;;;3.25;;
67076;SDS011;53991;46.364;17.008;2022-08-19T08:09:15;7.90;;;3.67;;
67076;SDS011;53991;46.364;17.008;2022-08-19T08:12:20;7.72;;;3.40;;
67076;SDS011;53991;46.364;17.008;2022-08-19T08:15:35;8.80;;;3.47;;
67076;SDS011;53991;46.364;17.008;2022-08-19T08:18:43;7.70;;;3.42;;
67076;SDS011;53991;46.364;17.008;2022-08-19T08:21:54;9.68;;;3.08;;
67076;SDS011;53991;46.364;17.008;2022-08-19T08:25:32;10.70;;;3.38;;
67076;SDS011;53991;46.364;17.008;2022-08-19T08:28:32;10.73;;;3.63;;
67076;SDS011;53991;46.364;17.008;2022-08-19T08:31:35;9.93;;;3.30;;
67076;SDS011;53991;46.364;17.008;2022-08-19T08:34:38;9.57;;;3.17;;
67076;SDS011;53991;46.364;17.008;2022-08-19T08:37:40;9.05;;;3.28;;
67076;SDS011;53991;46.364;17.008;2022-08-19T08:43:46;9.93;;;3.90;;
67076;SDS011;53991;46.364;17.008;2022-08-19T08:46:52;8.45;;;3.60;;
67076;SDS011;53991;46.364;17.008;2022-08-19T08:50:07;13.93;;;3.38;;
67076;SDS011;53991;46.364;17.008;2022-08-19T08:53:17;9.70;;;3.72;;
67076;SDS011;53991;46.364;17.008;2022-08-19T08:56:33;10.95;;;3.47;;
67076;SDS011;53991;46.364;17.008;2022-08-19T08:59:37;8.50;;;3.63;;
67076;SDS011;53991;46.364;17.008;2022-08-19T09:02:42;9.05;;;3.17;;
67076;SDS011;53991;46.364;17.008;2022-08-19T09:05:49;4.13;;;3.13;;
67076;SDS011;53991;46.364;17.008;2022-08-19T09:12:22;12.50;;;3.45;;
67076;SDS011;53991;46.364;17.008;2022-08-19T09:15:49;9.32;;;3.35;;
67076;SDS011;53991;46.364;17.008;2022-08-19T09:19:05;8.77;;;3.53;;
67076;SDS011;53991;46.364;17.008;2022-08-19T09:22:09;10.15;;;3.97;;
67076;SDS011;53991;46.364;17.008;2022-08-19T09:25:13;8.25;;;3.17;;
67076;SDS011;53991;46.364;17.008;2022-08-19T09:28:16;8.85;;;4.13;;
67076;SDS011;53991;46.364;17.008;2022-08-19T09:31:28;9.13;;;3.45;;
67076;SDS011;53991;46.364;17.008;2022-08-19T09:34:31;9.48;;;3.45;;
67076;SDS011;53991;46.364;17.008;2022-08-19T09:37:38;10.25;;;4.00;;
67076;SDS011;53991;46.364;17.008;2022-08-19T09:40:41;11.10;;;4.85;;
67076;SDS011;53991;46.364;17.008;2022-08-19T09:43:45;8.55;;;3.33;;
67076;SDS011;53991;46.364;17.008;2022-08-19T09:46:49;10.70;;;3.88;;
67076;SDS011;53991;46.364;17.008;2022-08-19T09:49:51;10.15;;;4.10;;
67076;SDS011;53991;46.364;17.008;2022-08-19T09:52:54;12.50;;;4.15;;
67076;SDS011;53991;46.364;17.008;2022-08-19T09:55:58;8.52;;;5.55;;
67076;SDS011;53991;46.364;17.008;2022-08-19T09:59:04;17.52;;;6.68;;
67076;SDS011;53991;46.364;17.008;2022-08-19T10:02:07;10.77;;;7.30;;
67076;SDS011;53991;46.364;17.008;2022-08-19T10:05:11;8.73;;;7.50;;
67076;SDS011;53991;46.364;17.008;2022-08-19T10:08:21;16.50;;;9.35;;
67076;SDS011;53991;46.364;17.008;2022-08-19T10:11:26;10.95;;;8.80;;
67076;SDS011;53991;46.364;17.008;2022-08-19T10:14:40;16.08;;;7.80;;
67076;SDS011;53991;46.364;17.008;2022-08-19T10:17:43;10.75;;;6.82;;
67076;SDS011;53991;46.364;17.008;2022-08-19T10:21:02;10.40;;;5.90;;
67076;SDS011;53991;46.364;17.008;2022-08-19T10:24:09;13.77;;;5.88;;
67076;SDS011;53991;46.364;17.008;2022-08-19T10:27:12;12.20;;;7.05;;
67076;SDS011;53991;46.364;17.008;2022-08-19T10:30:16;13.85;;;6.28;;
67076;SDS011;53991;46.364;17.008;2022-08-19T10:33:20;12.20;;;6.00;;
67076;SDS011;53991;46.364;17.008;2022-08-19T10:40:00;12.88;;;4.90;;
67076;SDS011;53991;46.364;17.008;2022-08-19T10:43:03;11.90;;;6.03;;
67076;SDS011;53991;46.364;17.008;2022-08-19T10:46:07;12.82;;;5.03;;
67076;SDS011;53991;46.364;17.008;2022-08-19T10:49:14;17.02;;;5.57;;
67076;SDS011;53991;46.364;17.008;2022-08-19T10:52:17;6.43;;;4.43;;
67076;SDS011;53991;46.364;17.008;2022-08-19T10:55:23;11.38;;;4.60;;
67076;SDS011;53991;46.364;17.008;2022-08-19T10:58:29;12.45;;;5.18;;
67076;SDS011;53991;46.364;17.008;2022-08-19T11:01:32;15.48;;;5.72;;
67076;SDS011;53991;46.364;17.008;2022-08-19T11:04:35;7.25;;;5.03;;
67076;SDS011;53991;46.364;17.008;2022-08-19T11:07:38;14.13;;;4.80;;
67076;SDS011;53991;46.364;17.008;2022-08-19T11:13:50;10.18;;;4.50;;
67076;SDS011;53991;46.364;17.008;2022-08-19T11:16:53;8.95;;;4.50;;
67076;SDS011;53991;46.364;17.008;2022-08-19T11:19:55;21.25;;;5.47;;
67076;SDS011;53991;46.364;17.008;2022-08-19T11:22:58;9.82;;;3.72;;
67076;SDS011;53991;46.364;17.008;2022-08-19T11:26:04;11.45;;;4.38;;
67076;SDS011;53991;46.364;17.008;2022-08-19T11:29:07;13.32;;;5.25;;
67076;SDS011;53991;46.364;17.008;2022-08-19T11:32:11;10.32;;;3.90;;
67076;SDS011;53991;46.364;17.008;2022-08-19T11:35:13;12.82;;;5.00;;
67076;SDS011;53991;46.364;17.008;2022-08-19T11:38:16;8.95;;;5.28;;
67076;SDS011;53991;46.364;17.008;2022-08-19T11:41:19;8.35;;;4.32;;
67076;SDS011;53991;46.364;17.008;2022-08-19T11:44:22;9.98;;;4.15;;
67076;SDS011;53991;46.364;17.008;2022-08-19T11:47:25;14.65;;;4.57;;
67076;SDS011;53991;46.364;17.008;2022-08-19T11:50:27;10.85;;;3.95;;
67076;SDS011;53991;46.364;17.008;2022-08-19T11:53:30;19.73;;;4.43;;
67076;SDS011;53991;46.364;17.008;2022-08-19T11:56:33;10.35;;;4.57;;
67076;SDS011;53991;46.364;17.008;2022-08-19T11:59:35;9.75;;;3.92;;
67076;SDS011;53991;46.364;17.008;2022-08-19T12:02:37;13.15;;;5.22;;
67076;SDS011;53991;46.364;17.008;2022-08-19T12:05:40;13.05;;;3.95;;
67076;SDS011;53991;46.364;17.008;2022-08-19T12:08:43;11.38;;;4.43;;
67076;SDS011;53991;46.364;17.008;2022-08-19T12:11:46;11.00;;;4.72;;
67076;SDS011;53991;46.364;17.008;2022-08-19T12:14:48;13.48;;;4.70;;
67076;SDS011;53991;46.364;17.008;2022-08-19T12:17:51;10.95;;;4.60;;
67076;SDS011;53991;46.364;17.008;2022-08-19T12:20:54;11.77;;;3.95;;
67076;SDS011;53991;46.364;17.008;2022-08-19T12:23:57;10.88;;;4.50;;
67076;SDS011;53991;46.364;17.008;2022-08-19T12:27:00;9.63;;;4.25;;
67076;SDS011;53991;46.364;17.008;2022-08-19T12:30:04;16.25;;;6.15;;
67076;SDS011;53991;46.364;17.008;2022-08-19T12:33:09;16.27;;;7.25;;
67076;SDS011;53991;46.364;17.008;2022-08-19T12:36:12;18.55;;;8.43;;
67076;SDS011;53991;46.364;17.008;2022-08-19T12:39:16;15.45;;;6.85;;
67076;SDS011;53991;46.364;17.008;2022-08-19T12:42:19;14.77;;;7.00;;
67076;SDS011;53991;46.364;17.008;2022-08-19T12:45:22;14.07;;;7.88;;
67076;SDS011;53991;46.364;17.008;2022-08-19T12:48:24;16.67;;;7.40;;
67076;SDS011;53991;46.364;17.008;2022-08-19T12:51:35;12.43;;;7.05;;
67076;SDS011;53991;46.364;17.008;2022-08-19T12:54:38;12.68;;;6.45;;
67076;SDS011;53991;46.364;17.008;2022-08-19T12:57:40;12.05;;;6.25;;
67076;SDS011;53991;46.364;17.008;2022-08-19T13:00:43;15.10;;;6.32;;
67076;SDS011;53991;46.364;17.008;2022-08-19T13:03:45;14.02;;;5.35;;
67076;SDS011;53991;46.364;17.008;2022-08-19T13:06:51;13.85;;;5.65;;
67076;SDS011;53991;46.364;17.008;2022-08-19T13:09:53;13.38;;;5.60;;
67076;SDS011;53991;46.364;17.008;2022-08-19T13:12:55;12.40;;;5.18;;
67076;SDS011;53991;46.364;17.008;2022-08-19T13:16:01;10.23;;;5.00;;
67076;SDS011;53991;46.364;17.008;2022-08-19T13:19:03;10.95;;;3.75;;
67076;SDS011;53991;46.364;17.008;2022-08-19T13:22:06;11.27;;;3.35;;
67076;SDS011;53991;46.364;17.008;2022-08-19T13:25:16;12.77;;;3.58;;
67076;SDS011;53991;46.364;17.008;2022-08-19T13:28:18;8.10;;;3.58;;
67076;SDS011;53991;46.364;17.008;2022-08-19T13:31:31;11.10;;;3.30;;
67076;SDS011;53991;46.364;17.008;2022-08-19T13:34:35;12.93;;;3.97;;
67076;SDS011;53991;46.364;17.008;2022-08-19T13:37:37;12.25;;;4.20;;
67076;SDS011;53991;46.364;17.008;2022-08-19T13:40:40;11.73;;;3.67;;
67076;SDS011;53991;46.364;17.008;2022-08-19T13:43:42;12.90;;;4.35;;
67076;SDS011;53991;46.364;17.008;2022-08-19T13:46:46;11.80;;;3.53;;
67076;SDS011;53991;46.364;17.008;2022-08-19T13:49:49;12.93;;;4.45;;
67076;SDS011;53991;46.364;17.008;2022-08-19T13:52:52;13.45;;;4.15;;
67076;SDS011;53991;46.364;17.008;2022-08-19T13:55:54;12.70;;;4.25;;
67076;SDS011;53991;46.364;17.008;2022-08-19T13:58:57;14.85;;;4.47;;
67076;SDS011;53991;46.364;17.008;2022-08-19T14:02:00;16.48;;;4.00;;
67076;SDS011;53991;46.364;17.008;2022-08-19T14:05:03;13.70;;;4.72;;
67076;SDS011;53991;46.364;17.008;2022-08-19T14:08:06;16.80;;;4.32;;
67076;SDS011;53991;46.364;17.008;2022-08-19T14:11:09;19.55;;;4.10;;
67076;SDS011;53991;46.364;17.008;2022-08-19T14:14:12;17.13;;;4.55;;
67076;SDS011;53991;46.364;17.008;2022-08-19T14:17:17;14.90;;;4.97;;
67076;SDS011;53991;46.364;17.008;2022-08-19T14:20:19;9.98;;;4.15;;
67076;SDS011;53991;46.364;17.008;2022-08-19T14:23:26;16.85;;;4.35;;
67076;SDS011;53991;46.364;17.008;2022-08-19T14:26:28;14.68;;;4.40;;
67076;SDS011;53991;46.364;17.008;2022-08-19T14:29:34;14.13;;;4.93;;
67076;SDS011;53991;46.364;17.008;2022-08-19T14:32:36;9.15;;;3.47;;
67076;SDS011;53991;46.364;17.008;2022-08-19T14:35:38;12.48;;;4.53;;
67076;SDS011;53991;46.364;17.008;2022-08-19T14:38:41;17.13;;;4.75;;
67076;SDS011;53991;46.364;17.008;2022-08-19T14:41:43;11.88;;;4.55;;
67076;SDS011;53991;46.364;17.008;2022-08-19T14:44:45;15.52;;;4.18;;
67076;SDS011;53991;46.364;17.008;2022-08-19T14:47:48;15.68;;;3.80;;
67076;SDS011;53991;46.364;17.008;2022-08-19T14:50:51;17.60;;;4.38;;
67076;SDS011;53991;46.364;17.008;2022-08-19T14:53:54;12.68;;;4.18;;
67076;SDS011;53991;46.364;17.008;2022-08-19T14:56:56;15.13;;;4.45;;
67076;SDS011;53991;46.364;17.008;2022-08-19T14:59:59;11.98;;;4.03;;
67076;SDS011;53991;46.364;17.008;2022-08-19T15:03:01;20.13;;;5.05;;
67076;SDS011;53991;46.364;17.008;2022-08-19T15:06:04;16.52;;;5.10;;
67076;SDS011;53991;46.364;17.008;2022-08-19T15:09:06;9.70;;;4.20;;
67076;SDS011;53991;46.364;17.008;2022-08-19T15:12:09;10.43;;;3.80;;
67076;SDS011;53991;46.364;17.008;2022-08-19T15:15:13;26.10;;;5.10;;
67076;SDS011;53991;46.364;17.008;2022-08-19T15:18:16;12.90;;;4.68;;
67076;SDS011;53991;46.364;17.008;2022-08-19T15:21:18;17.35;;;5.82;;
67076;SDS011;53991;46.364;17.008;2022-08-19T15:24:28;9.88;;;3.65;;
67076;SDS011;53991;46.364;17.008;2022-08-19T15:27:30;17.20;;;4.63;;
67076;SDS011;53991;46.364;17.008;2022-08-19T15:33:35;15.63;;;4.53;;
67076;SDS011;53991;46.364;17.008;2022-08-19T15:36:38;11.98;;;3.63;;
67076;SDS011;53991;46.364;17.008;2022-08-19T15:39:40;14.23;;;4.20;;
67076;SDS011;53991;46.364;17.008;2022-08-19T15:42:43;16.45;;;5.10;;
67076;SDS011;53991;46.364;17.008;2022-08-19T15:45:45;16.92;;;4.57;;
67076;SDS011;53991;46.364;17.008;2022-08-19T15:48:50;17.37;;;4.90;;
67076;SDS011;53991;46.364;17.008;2022-08-19T15:52:00;15.18;;;4.25;;
67076;SDS011;53991;46.364;17.008;2022-08-19T15:55:03;16.00;;;4.82;;
67076;SDS011;53991;46.364;17.008;2022-08-19T15:58:08;12.95;;;3.72;;
67076;SDS011;53991;46.364;17.008;2022-08-19T16:01:28;14.82;;;4.55;;
67076;SDS011;53991;46.364;17.008;2022-08-19T16:04:33;14.27;;;5.40;;
67076;SDS011;53991;46.364;17.008;2022-08-19T16:07:36;19.52;;;4.38;;
67076;SDS011;53991;46.364;17.008;2022-08-19T16:10:38;17.02;;;6.45;;
67076;SDS011;53991;46.364;17.008;2022-08-19T16:16:43;7.05;;;3.55;;
67076;SDS011;53991;46.364;17.008;2022-08-19T16:19:45;18.70;;;5.07;;
67076;SDS011;53991;46.364;17.008;2022-08-19T16:22:53;12.02;;;4.50;;
67076;SDS011;53991;46.364;17.008;2022-08-19T16:25:56;14.85;;;4.82;;
67076;SDS011;53991;46.364;17.008;2022-08-19T16:28:59;18.92;;;4.72;;
67076;SDS011;53991;46.364;17.008;2022-08-19T16:32:03;16.00;;;4.05;;
67076;SDS011;53991;46.364;17.008;2022-08-19T16:35:07;17.80;;;4.80;;
67076;SDS011;53991;46.364;17.008;2022-08-19T16:38:09;17.73;;;4.38;;
67076;SDS011;53991;46.364;17.008;2022-08-19T16:41:12;12.48;;;4.43;;
67076;SDS011;53991;46.364;17.008;2022-08-19T16:47:18;12.82;;;3.70;;
67076;SDS011;53991;46.364;17.008;2022-08-19T16:50:21;11.85;;;3.88;;
67076;SDS011;53991;46.364;17.008;2022-08-19T16:53:43;15.88;;;4.13;;
67076;SDS011;53991;46.364;17.008;2022-08-19T16:59:47;15.40;;;4.60;;
67076;SDS011;53991;46.364;17.008;2022-08-19T17:02:50;13.93;;;5.18;;
67076;SDS011;53991;46.364;17.008;2022-08-19T17:05:53;15.52;;;4.45;;
67076;SDS011;53991;46.364;17.008;2022-08-19T17:08:58;13.73;;;4.82;;
67076;SDS011;53991;46.364;17.008;2022-08-19T17:12:01;10.85;;;3.95;;
67076;SDS011;53991;46.364;17.008;2022-08-19T17:15:04;21.02;;;5.70;;
67076;SDS011;53991;46.364;17.008;2022-08-19T17:18:07;18.13;;;5.13;;
67076;SDS011;53991;46.364;17.008;2022-08-19T17:21:10;9.88;;;4.57;;
67076;SDS011;53991;46.364;17.008;2022-08-19T17:24:13;10.82;;;3.95;;
67076;SDS011;53991;46.364;17.008;2022-08-19T17:27:16;12.63;;;3.97;;
67076;SDS011;53991;46.364;17.008;2022-08-19T17:30:19;7.65;;;3.75;;
67076;SDS011;53991;46.364;17.008;2022-08-19T17:33:22;15.40;;;5.35;;
67076;SDS011;53991;46.364;17.008;2022-08-19T17:36:25;13.38;;;4.22;;
67076;SDS011;53991;46.364;17.008;2022-08-19T17:39:29;14.90;;;4.85;;
67076;SDS011;53991;46.364;17.008;2022-08-19T17:42:39;17.33;;;4.90;;
67076;SDS011;53991;46.364;17.008;2022-08-19T17:45:42;15.60;;;5.95;;
67076;SDS011;53991;46.364;17.008;2022-08-19T17:48:45;16.83;;;6.00;;
67076;SDS011;53991;46.364;17.008;2022-08-19T17:51:52;21.80;;;7.10;;
67076;SDS011;53991;46.364;17.008;2022-08-19T17:54:55;35.65;;;6.43;;
67076;SDS011;53991;46.364;17.008;2022-08-19T17:57:57;18.20;;;7.07;;
67076;SDS011;53991;46.364;17.008;2022-08-19T18:01:00;16.70;;;6.72;;
67076;SDS011;53991;46.364;17.008;2022-08-19T18:04:03;14.65;;;5.38;;
67076;SDS011;53991;46.364;17.008;2022-08-19T18:07:05;13.80;;;5.25;;
67076;SDS011;53991;46.364;17.008;2022-08-19T18:10:08;13.10;;;5.47;;
67076;SDS011;53991;46.364;17.008;2022-08-19T18:13:11;17.35;;;6.38;;
67076;SDS011;53991;46.364;17.008;2022-08-19T18:16:18;17.08;;;5.72;;
67076;SDS011;53991;46.364;17.008;2022-08-19T18:19:21;9.88;;;4.72;;
67076;SDS011;53991;46.364;17.008;2022-08-19T18:22:44;15.93;;;5.53;;
67076;SDS011;53991;46.364;17.008;2022-08-19T18:25:48;13.35;;;5.68;;
67076;SDS011;53991;46.364;17.008;2022-08-19T18:28:50;14.45;;;5.85;;
67076;SDS011;53991;46.364;17.008;2022-08-19T18:31:53;16.88;;;7.25;;
67076;SDS011;53991;46.364;17.008;2022-08-19T18:34:55;13.32;;;5.18;;
67076;SDS011;53991;46.364;17.008;2022-08-19T18:37:59;12.05;;;5.00;;
67076;SDS011;53991;46.364;17.008;2022-08-19T18:41:02;13.98;;;5.25;;
67076;SDS011;53991;46.364;17.008;2022-08-19T18:44:05;12.50;;;6.00;;
67076;SDS011;53991;46.364;17.008;2022-08-19T18:47:08;15.75;;;6.38;;
67076;SDS011;53991;46.364;17.008;2022-08-19T18:50:10;17.00;;;5.93;;
67076;SDS011;53991;46.364;17.008;2022-08-19T18:53:14;16.02;;;6.25;;
67076;SDS011;53991;46.364;17.008;2022-08-19T18:56:17;20.45;;;6.53;;
67076;SDS011;53991;46.364;17.008;2022-08-19T18:59:24;13.07;;;5.45;;
67076;SDS011;53991;46.364;17.008;2022-08-19T19:02:28;29.63;;;6.97;;
67076;SDS011;53991;46.364;17.008;2022-08-19T19:05:30;14.77;;;5.78;;
67076;SDS011;53991;46.364;17.008;2022-08-19T19:08:33;12.70;;;5.15;;
67076;SDS011;53991;46.364;17.008;2022-08-19T19:14:39;12.38;;;5.68;;
67076;SDS011;53991;46.364;17.008;2022-08-19T19:17:50;15.05;;;6.75;;
67076;SDS011;53991;46.364;17.008;2022-08-19T19:20:53;13.20;;;4.90;;
67076;SDS011;53991;46.364;17.008;2022-08-19T19:23:55;15.82;;;6.80;;
67076;SDS011;53991;46.364;17.008;2022-08-19T19:26:59;15.73;;;6.50;;
67076;SDS011;53991;46.364;17.008;2022-08-19T19:30:03;13.82;;;6.82;;
67076;SDS011;53991;46.364;17.008;2022-08-19T19:33:05;17.95;;;6.43;;
67076;SDS011;53991;46.364;17.008;2022-08-19T19:36:08;16.45;;;6.78;;
67076;SDS011;53991;46.364;17.008;2022-08-19T19:39:10;22.95;;;6.88;;
67076;SDS011;53991;46.364;17.008;2022-08-19T19:42:33;18.20;;;6.90;;
67076;SDS011;53991;46.364;17.008;2022-08-19T19:45:35;14.30;;;5.85;;
67076;SDS011;53991;46.364;17.008;2022-08-19T19:48:38;17.92;;;7.28;;